createdAt,value
2019-04-26T00:02:16.154Z,0.00
2019-04-26T00:05:16.474Z,0.00
2019-04-26T00:08:15.996Z,0.00
2019-04-26T00:11:16.122Z,0.00
2019-04-26T00:14:16.286Z,0.00
2019-04-26T00:17:15.911Z,0.00
2019-04-26T00:20:17.005Z,0.00
2019-04-26T00:23:16.141Z,0.00
2019-04-26T00:26:15.809Z,0.00
2019-04-26T00:29:16.825Z,0.00
2019-04-26T00:32:15.755Z,0.00
2019-04-26T00:35:15.732Z,0.00
2019-04-26T00:38:16.083Z,0.00
2019-04-26T00:41:16.374Z,0.00
2019-04-26T00:44:16.567Z,0.00
2019-04-26T00:47:15.588Z,0.00
2019-04-26T00:50:15.552Z,0.00
2019-04-26T00:53:16.078Z,0.00
2019-04-26T00:56:15.936Z,0.00
2019-04-26T00:59:16.386Z,0.00
2019-04-26T01:02:16.595Z,0.00
2019-04-26T01:05:16.075Z,0.00
2019-04-26T01:08:15.809Z,0.00
2019-04-26T01:11:16.287Z,0.00
2019-04-26T01:14:24.164Z,0.00
2019-04-26T01:17:16.156Z,0.00
2019-04-26T01:20:16.115Z,0.00
2019-04-26T01:23:15.195Z,0.00
2019-04-26T01:26:15.159Z,0.00
2019-04-26T01:29:15.153Z,0.00
2019-04-26T01:32:15.091Z,0.00
2019-04-26T01:35:15.071Z,0.00
2019-04-26T01:38:15.036Z,0.00
2019-04-26T01:41:15.014Z,0.00
2019-04-26T01:44:14.956Z,0.00
2019-04-26T01:47:14.942Z,0.00
2019-04-26T01:50:14.898Z,0.00
2019-04-26T01:53:14.887Z,0.00
2019-04-26T01:56:14.870Z,0.00
2019-04-26T01:59:14.796Z,0.00
2019-04-26T02:02:14.778Z,0.00
2019-04-26T02:05:14.735Z,0.00
2019-04-26T02:08:14.716Z,0.00
2019-04-26T02:11:14.680Z,0.00
2019-04-26T02:14:14.653Z,0.00
2019-04-26T02:17:14.618Z,0.00
2019-04-26T02:20:14.578Z,0.00
2019-04-26T02:23:14.537Z,0.00
2019-04-26T02:26:14.524Z,0.00
2019-04-26T02:29:14.476Z,0.00
2019-04-26T02:32:14.510Z,0.00
2019-04-26T02:35:14.419Z,0.00
2019-04-26T02:38:14.380Z,0.00
2019-04-26T02:41:14.363Z,0.00
2019-04-26T02:44:14.315Z,0.00
2019-04-26T02:47:14.292Z,0.00
2019-04-26T02:50:14.252Z,0.00
2019-04-26T02:53:14.234Z,0.00
2019-04-26T02:56:14.184Z,0.00
2019-04-26T02:59:14.291Z,0.00
2019-04-26T03:02:14.126Z,0.00
2019-04-26T03:05:14.090Z,0.00
2019-04-26T03:08:14.070Z,0.00
2019-04-26T03:11:17.326Z,0.00
2019-04-26T03:14:14.005Z,0.00
2019-04-26T03:17:13.957Z,0.00
2019-04-26T03:20:13.943Z,0.00
2019-04-26T03:23:13.903Z,0.00
2019-04-26T03:26:13.910Z,0.00
2019-04-26T03:29:13.851Z,0.00
2019-04-26T03:32:16.543Z,0.00
2019-04-26T03:35:13.789Z,0.00
2019-04-26T03:38:13.727Z,4.00
2019-04-26T03:41:13.718Z,8.00
2019-04-26T03:44:13.660Z,8.00
2019-04-26T03:47:13.648Z,12.00
2019-04-26T03:50:13.623Z,20.00
2019-04-26T03:53:13.569Z,28.00
2019-04-26T03:56:13.542Z,40.00
2019-04-26T03:59:13.661Z,56.00
2019-04-26T04:02:13.503Z,76.00
2019-04-26T04:05:13.436Z,96.00
2019-04-26T04:08:13.421Z,116.00
2019-04-26T04:11:13.392Z,204.00
2019-04-26T04:14:13.427Z,292.00
2019-04-26T04:17:13.310Z,380.00
2019-04-26T04:20:13.288Z,392.00
2019-04-26T04:23:13.249Z,400.00
2019-04-26T04:26:13.214Z,480.00
2019-04-26T04:29:13.188Z,708.00
2019-04-26T04:32:13.154Z,968.00
2019-04-26T04:35:13.128Z,1092.00
2019-04-26T04:38:13.090Z,1128.00
2019-04-26T04:41:13.058Z,1224.00
2019-04-26T04:44:13.042Z,1332.00
2019-04-26T04:47:23.701Z,1528.00
2019-04-26T04:50:13.961Z,1640.00
2019-04-26T04:53:12.926Z,1660.00
2019-04-26T04:56:12.885Z,1664.00
2019-04-26T04:59:12.871Z,1720.00
2019-04-26T05:02:12.818Z,1904.00
2019-04-26T05:05:12.796Z,1880.00
2019-04-26T05:08:12.771Z,1748.00
2019-04-26T05:11:12.722Z,1760.00
2019-04-26T05:14:12.723Z,1868.00
2019-04-26T05:17:12.666Z,2204.00
2019-04-26T05:20:12.649Z,2496.00
2019-04-26T05:23:12.598Z,2540.00
2019-04-26T05:26:12.613Z,2508.00
2019-04-26T05:29:12.531Z,2512.00
2019-04-26T05:32:12.514Z,2584.00
2019-04-26T05:35:12.483Z,2644.00
2019-04-26T05:38:18.277Z,2968.00
2019-04-26T05:41:13.413Z,3328.00
2019-04-26T05:44:12.373Z,4136.00
2019-04-26T05:47:12.349Z,4780.00
2019-04-26T05:50:12.323Z,5092.00
2019-04-26T05:53:12.289Z,4540.00
2019-04-26T05:56:12.246Z,4016.00
2019-04-26T05:59:12.218Z,3900.00
2019-04-26T06:02:12.187Z,3992.00
2019-04-26T06:05:12.142Z,4264.00
2019-04-26T06:08:12.118Z,4388.00
2019-04-26T06:11:12.089Z,4668.00
2019-04-26T06:14:12.064Z,4880.00
2019-04-26T06:17:12.009Z,4812.00
2019-04-26T06:20:22.255Z,3316.00
2019-04-26T06:23:12.954Z,2732.00
2019-04-26T06:26:11.918Z,2396.00
2019-04-26T06:29:11.898Z,2712.00
2019-04-26T06:32:11.868Z,3568.00
2019-04-26T06:35:11.827Z,3036.00
2019-04-26T06:38:11.785Z,3384.00
2019-04-26T06:41:11.765Z,3328.00
2019-04-26T06:44:11.725Z,2968.00
2019-04-26T06:47:11.709Z,3352.00
2019-04-26T06:50:11.672Z,3432.00
2019-04-26T06:53:11.625Z,4208.00
2019-04-26T06:56:11.602Z,3972.00
2019-04-26T06:59:11.575Z,3488.00
2019-04-26T07:02:11.542Z,4156.00
2019-04-26T07:05:12.226Z,4012.00
2019-04-26T07:08:12.625Z,4052.00
2019-04-26T07:11:11.783Z,4272.00
2019-04-26T07:14:19.035Z,4328.00
2019-04-26T07:17:12.235Z,4560.00
2019-04-26T07:20:11.597Z,4196.00
2019-04-26T07:23:11.313Z,3896.00
2019-04-26T07:26:11.275Z,4332.00
2019-04-26T07:29:11.328Z,4656.00
2019-04-26T07:32:11.585Z,4392.00
2019-04-26T07:35:11.204Z,4456.00
2019-04-26T07:38:11.201Z,4136.00
2019-04-26T07:41:11.480Z,3420.00
2019-04-26T07:44:11.830Z,3652.00
2019-04-26T07:47:13.864Z,3420.00
2019-04-26T07:50:11.500Z,3040.00
2019-04-26T07:53:11.343Z,2920.00
2019-04-26T07:56:11.366Z,2900.00
2019-04-26T07:59:10.938Z,1992.00
2019-04-26T08:02:11.221Z,1580.00
2019-04-26T08:05:11.471Z,1104.00
2019-04-26T08:08:10.953Z,960.00
2019-04-26T08:11:12.825Z,1264.00
2019-04-26T08:14:10.805Z,1508.00
2019-04-26T08:17:10.719Z,2328.00
2019-04-26T08:20:11.429Z,3536.00
2019-04-26T08:23:28.186Z,4448.00
2019-04-26T08:26:11.641Z,4184.00
2019-04-26T08:29:10.654Z,3188.00
2019-04-26T08:32:11.409Z,3384.00
2019-04-26T08:35:16.819Z,3380.00
2019-04-26T08:38:16.005Z,3872.00
2019-04-26T08:41:11.667Z,3280.00
2019-04-26T08:44:11.237Z,3804.00
2019-04-26T08:47:14.257Z,3404.00
2019-04-26T08:50:13.688Z,3852.00
2019-04-26T08:53:10.343Z,3548.00
2019-04-26T08:56:11.630Z,3280.00
2019-04-26T08:59:10.270Z,3536.00
2019-04-26T09:02:10.246Z,5200.00
2019-04-26T09:05:10.198Z,3980.00
2019-04-26T09:08:10.191Z,3264.00
2019-04-26T09:11:22.547Z,3124.00
2019-04-26T09:14:11.122Z,3472.00
2019-04-26T09:17:10.087Z,3996.00
2019-04-26T09:20:10.039Z,3892.00
2019-04-26T09:23:10.039Z,4724.00
2019-04-26T09:26:12.503Z,5860.00
2019-04-26T09:29:09.950Z,5612.00
2019-04-26T09:32:09.914Z,5476.00
2019-04-26T09:35:11.342Z,5784.00
2019-04-26T09:38:10.849Z,5992.00
2019-04-26T09:41:09.828Z,7124.00
2019-04-26T09:44:09.775Z,8172.00
2019-04-26T09:47:09.759Z,6904.00
2019-04-26T09:50:11.242Z,6144.00
2019-04-26T09:53:10.699Z,7856.00
2019-04-26T09:56:09.660Z,10208.00
2019-04-26T09:59:09.623Z,9248.00
2019-04-26T10:02:09.599Z,7064.00
2019-04-26T10:05:12.173Z,6736.00
2019-04-26T10:08:13.091Z,7492.00
2019-04-26T10:11:10.729Z,11708.00
2019-04-26T10:14:09.469Z,13772.00
2019-04-26T10:17:11.469Z,13484.00
2019-04-26T10:20:10.398Z,11976.00
2019-04-26T10:23:09.371Z,12840.00
2019-04-26T10:26:09.325Z,12840.00
2019-04-26T10:29:09.304Z,12644.00
2019-04-26T10:32:09.276Z,18336.00
2019-04-26T10:35:09.239Z,20832.00
2019-04-26T10:38:09.234Z,14584.00
2019-04-26T10:41:09.177Z,11900.00
2019-04-26T10:44:09.142Z,11924.00
2019-04-26T10:47:09.100Z,11652.00
2019-04-26T10:50:09.077Z,7128.00
2019-04-26T10:53:09.037Z,5716.00
2019-04-26T10:56:09.011Z,5852.00
2019-04-26T10:59:09.823Z,5780.00
2019-04-26T11:02:08.965Z,12236.00
2019-04-26T11:05:11.633Z,15296.00
2019-04-26T11:08:09.886Z,13736.00
2019-04-26T11:11:08.842Z,13440.00
2019-04-26T11:14:08.821Z,10972.00
2019-04-26T11:17:11.543Z,11264.00
2019-04-26T11:20:10.511Z,8896.00
2019-04-26T11:23:11.648Z,8420.00
2019-04-26T11:26:08.690Z,9368.00
2019-04-26T11:29:08.664Z,10036.00
2019-04-26T11:32:08.637Z,8920.00
2019-04-26T11:35:08.578Z,8092.00
2019-04-26T11:38:08.584Z,7052.00
2019-04-26T11:41:08.638Z,7256.00
2019-04-26T11:44:08.503Z,8068.00
2019-04-26T11:47:08.509Z,9264.00
2019-04-26T11:50:08.487Z,8032.00
2019-04-26T11:53:10.262Z,9184.00
2019-04-26T11:56:08.387Z,11896.00
2019-04-26T11:59:08.333Z,10380.00
2019-04-26T12:02:08.304Z,9256.00
2019-04-26T12:05:08.277Z,10856.00
2019-04-26T12:08:08.238Z,12348.00
2019-04-26T12:11:17.871Z,13452.00
2019-04-26T12:14:19.656Z,14600.00
2019-04-26T12:17:09.132Z,12772.00
2019-04-26T12:20:08.120Z,11368.00
2019-04-26T12:23:08.063Z,10104.00
2019-04-26T12:26:08.044Z,9212.00
2019-04-26T12:29:10.504Z,8948.00
2019-04-26T12:32:08.979Z,8772.00
2019-04-26T12:35:07.945Z,9172.00
2019-04-26T12:38:07.914Z,6592.00
2019-04-26T12:41:07.930Z,6696.00
2019-04-26T12:44:07.845Z,7408.00
2019-04-26T12:47:07.813Z,6684.00
2019-04-26T12:50:07.791Z,7284.00
2019-04-26T12:53:07.741Z,8776.00
2019-04-26T12:56:07.717Z,8624.00
2019-04-26T12:59:07.671Z,7796.00
2019-04-26T13:02:07.661Z,7908.00
2019-04-26T13:05:07.622Z,6788.00
2019-04-26T13:08:07.590Z,5368.00
2019-04-26T13:11:14.518Z,3728.00
2019-04-26T13:15:52.390Z,3572.00
2019-04-26T13:18:52.367Z,3432.00
2019-04-26T13:21:52.319Z,3384.00
2019-04-26T13:24:52.319Z,4024.00
2019-04-26T13:27:52.247Z,5696.00
2019-04-26T13:30:52.225Z,7296.00
2019-04-26T13:33:52.181Z,6836.00
2019-04-26T13:36:52.168Z,5952.00
2019-04-26T13:39:55.296Z,5488.00
2019-04-26T13:42:52.510Z,5384.00
2019-04-26T13:45:52.073Z,4580.00
2019-04-26T13:48:52.036Z,3716.00
2019-04-26T13:51:51.990Z,3560.00
2019-04-26T13:54:55.455Z,3236.00
2019-04-26T13:57:51.927Z,3052.00
2019-04-26T14:00:51.883Z,3336.00
2019-04-26T14:03:51.867Z,3428.00
2019-04-26T14:06:51.905Z,3400.00
2019-04-26T14:09:51.793Z,3412.00
2019-04-26T14:12:51.770Z,3432.00
2019-04-26T14:15:52.102Z,3500.00
2019-04-26T14:18:51.702Z,3624.00
2019-04-26T14:21:51.661Z,3972.00
2019-04-26T14:24:53.004Z,4776.00
2019-04-26T14:27:51.717Z,5396.00
2019-04-26T14:30:51.727Z,5844.00
2019-04-26T14:33:51.772Z,6180.00
2019-04-26T14:36:51.820Z,5936.00
2019-04-26T14:39:55.350Z,5328.00
2019-04-26T14:43:06.053Z,4628.00
2019-04-26T14:45:56.040Z,3940.00
2019-04-26T14:49:01.298Z,3428.00
2019-04-26T14:51:56.091Z,3232.00
2019-04-26T14:54:52.158Z,3392.00
2019-04-26T14:57:54.011Z,3812.00
2019-04-26T15:00:55.908Z,4608.00
2019-04-26T15:03:57.151Z,5432.00
2019-04-26T15:06:57.899Z,5588.00
2019-04-26T15:09:53.407Z,5284.00
2019-04-26T15:12:58.603Z,5164.00
2019-04-26T15:15:53.532Z,5548.00
2019-04-26T15:18:52.641Z,5780.00
2019-04-26T15:21:52.574Z,5740.00
2019-04-26T15:24:52.603Z,5640.00
2019-04-26T15:27:52.615Z,5528.00
2019-04-26T15:30:52.850Z,5572.00
2019-04-26T15:33:52.962Z,5788.00
2019-04-26T15:36:54.145Z,6148.00
2019-04-26T15:39:55.140Z,6000.00
2019-04-26T15:43:01.263Z,5308.00
2019-04-26T15:45:53.636Z,4580.00
2019-04-26T15:48:54.538Z,4136.00
2019-04-26T15:51:52.674Z,4212.00
2019-04-26T15:54:58.422Z,4528.00
2019-04-26T15:57:53.568Z,4740.00
2019-04-26T16:00:52.883Z,6008.00
2019-04-26T16:03:53.082Z,7204.00
2019-04-26T16:06:52.563Z,7684.00
2019-04-26T16:09:55.907Z,8500.00
2019-04-26T16:12:52.522Z,9500.00
2019-04-26T16:15:52.491Z,9052.00
2019-04-26T16:18:55.963Z,8336.00
2019-04-26T16:21:55.316Z,7968.00
2019-04-26T16:24:53.132Z,7492.00
2019-04-26T16:27:52.225Z,7264.00
2019-04-26T16:30:53.158Z,7016.00
2019-04-26T16:33:52.156Z,6868.00
2019-04-26T16:36:52.573Z,6752.00
2019-04-26T16:39:51.908Z,6176.00
2019-04-26T16:42:57.087Z,5408.00
2019-04-26T16:45:54.284Z,4828.00
2019-04-26T16:48:56.668Z,4212.00
2019-04-26T16:52:01.620Z,3468.00
2019-04-26T16:54:53.004Z,2864.00
2019-04-26T16:57:55.576Z,2652.00
2019-04-26T17:00:57.659Z,2608.00
2019-04-26T17:03:53.426Z,2456.00
2019-04-26T17:06:52.549Z,2532.00
2019-04-26T17:09:58.149Z,2468.00
2019-04-26T17:12:54.339Z,2348.00
2019-04-26T17:15:57.570Z,2296.00
2019-04-26T17:18:55.588Z,2268.00
2019-04-26T17:21:52.493Z,2264.00
2019-04-26T17:24:51.122Z,2152.00
2019-04-26T17:27:52.806Z,1868.00
2019-04-26T17:30:52.903Z,1588.00
2019-04-26T17:33:51.054Z,1412.00
2019-04-26T17:36:52.284Z,1220.00
2019-04-26T17:39:52.173Z,1068.00
2019-04-26T17:42:51.224Z,1084.00
2019-04-26T17:45:51.666Z,1280.00
2019-04-26T17:48:51.397Z,1416.00
2019-04-26T17:51:51.734Z,1436.00
2019-04-26T17:54:52.230Z,1372.00
2019-04-26T17:57:52.456Z,1204.00
2019-04-26T18:00:51.578Z,1080.00
2019-04-26T18:03:55.448Z,856.00
2019-04-26T18:06:57.869Z,660.00
2019-04-26T18:09:52.590Z,544.00
2019-04-26T18:12:51.114Z,492.00
2019-04-26T18:15:52.742Z,476.00
2019-04-26T18:18:54.401Z,440.00
2019-04-26T18:21:56.071Z,388.00
2019-04-26T18:24:52.221Z,336.00
2019-04-26T18:27:51.250Z,296.00
2019-04-26T18:30:53.024Z,248.00
2019-04-26T18:33:54.840Z,196.00
2019-04-26T18:36:52.385Z,140.00
2019-04-26T18:39:51.403Z,104.00
2019-04-26T18:42:53.074Z,80.00
2019-04-26T18:45:53.155Z,52.00
2019-04-26T18:48:51.527Z,32.00
2019-04-26T18:51:51.546Z,24.00
2019-04-26T18:54:52.527Z,16.00
2019-04-26T18:57:56.352Z,8.00
2019-04-26T19:00:53.158Z,8.00
2019-04-26T19:03:51.803Z,4.00
2019-04-26T19:06:51.888Z,4.00
2019-04-26T19:10:02.804Z,4.00
2019-04-26T19:12:56.388Z,0.00
2019-04-26T19:15:53.110Z,0.00
2019-04-26T19:18:52.204Z,0.00
2019-04-26T19:21:54.489Z,0.00
2019-04-26T19:24:54.268Z,0.00
2019-04-26T19:27:54.105Z,0.00
2019-04-26T19:30:53.220Z,0.00
2019-04-26T19:33:55.842Z,0.00
2019-04-26T19:36:56.289Z,0.00
2019-04-26T19:39:53.955Z,0.00
2019-04-26T19:42:57.391Z,0.00
2019-04-26T19:45:53.255Z,0.00
2019-04-26T19:48:56.469Z,0.00
2019-04-26T19:51:56.671Z,0.00
2019-04-26T19:54:54.582Z,0.00
2019-04-26T19:57:53.751Z,0.00
2019-04-26T20:00:53.828Z,0.00
2019-04-26T20:03:55.364Z,0.00
2019-04-26T20:06:55.335Z,0.00
2019-04-26T20:09:56.324Z,0.00
2019-04-26T20:12:55.394Z,0.00
2019-04-26T20:16:00.443Z,0.00
2019-04-26T20:18:55.617Z,0.00
2019-04-26T20:21:54.763Z,0.00
2019-04-26T20:26:22.686Z,0.00
2019-04-26T20:29:23.202Z,0.00
2019-04-26T20:32:23.881Z,0.00
2019-04-26T20:35:26.906Z,0.00
2019-04-26T20:38:23.209Z,0.00
2019-04-26T20:41:22.273Z,0.00
2019-04-26T20:44:28.393Z,0.00
2019-04-26T20:47:22.974Z,0.00
2019-04-26T20:50:21.892Z,0.00
2019-04-26T20:53:21.846Z,0.00
2019-04-26T20:56:22.485Z,0.00
2019-04-26T20:59:23.564Z,0.00
2019-04-26T21:02:24.783Z,0.00
2019-04-26T21:05:21.667Z,0.00
2019-04-26T21:08:25.693Z,0.00
2019-04-26T21:11:22.570Z,0.00
2019-04-26T21:14:21.607Z,0.00
2019-04-26T21:17:24.247Z,0.00
2019-04-26T21:20:22.471Z,0.00
2019-04-26T21:23:22.276Z,0.00
2019-04-26T21:26:21.716Z,0.00
2019-04-26T21:29:24.145Z,0.00
2019-04-26T21:32:23.709Z,0.00
2019-04-26T21:35:25.000Z,0.00
2019-04-26T21:38:25.571Z,0.00
2019-04-26T21:41:21.131Z,0.00
2019-04-26T21:44:21.087Z,0.00
2019-04-26T21:47:21.069Z,0.00
2019-04-26T21:50:21.001Z,0.00
2019-04-26T21:53:21.007Z,0.00
2019-04-26T21:56:20.975Z,0.00
2019-04-26T21:59:20.973Z,0.00
2019-04-26T22:02:20.944Z,0.00
2019-04-26T22:05:20.938Z,0.00
2019-04-26T22:08:24.508Z,0.00
2019-04-26T22:11:20.978Z,0.00
2019-04-26T22:14:21.611Z,0.00
2019-04-26T22:17:22.612Z,0.00
2019-04-26T22:20:20.854Z,0.00
2019-04-26T22:23:21.401Z,0.00
2019-04-26T22:26:20.819Z,0.00
2019-04-26T22:29:20.794Z,0.00
2019-04-26T22:32:20.798Z,0.00
2019-04-26T22:35:21.633Z,0.00
2019-04-26T22:38:23.754Z,0.00
2019-04-26T22:41:24.392Z,0.00
2019-04-26T22:44:24.879Z,0.00
2019-04-26T22:47:23.913Z,0.00
2019-04-26T22:50:22.164Z,0.00
2019-04-26T22:53:21.501Z,0.00
2019-04-26T22:56:20.651Z,0.00
2019-04-26T22:59:20.631Z,0.00
2019-04-26T23:02:25.849Z,0.00
2019-04-26T23:05:23.082Z,0.00
2019-04-26T23:08:20.650Z,0.00
2019-04-26T23:11:20.640Z,0.00
2019-04-26T23:14:20.664Z,0.00
2019-04-26T23:17:20.648Z,0.00
2019-04-26T23:20:20.671Z,0.00
2019-04-26T23:23:20.664Z,0.00
2019-04-26T23:26:20.702Z,0.00
2019-04-26T23:29:20.682Z,0.00
2019-04-26T23:32:20.716Z,0.00
2019-04-26T23:35:20.703Z,0.00
2019-04-26T23:38:20.715Z,0.00
2019-04-26T23:41:20.744Z,0.00
2019-04-26T23:44:20.726Z,0.00
2019-04-26T23:47:22.986Z,0.00
2019-04-26T23:50:20.777Z,0.00
2019-04-26T23:53:21.406Z,0.00
2019-04-26T23:56:23.539Z,0.00
2019-04-26T23:59:21.857Z,0.00
